Finnhawk — OJNL — position and weather

sailwx.info

Track history (hours):
 
Tides and Currents Weather Stations Pressure Air Temp Water Temp Dewpoint Dewpoint Depression Visibility Wind Speed Wind Dir Waves Ship Positions

Finnhawk

Last reported at 2017-Jul-25 16:30 UTC. Time now 2017-Jul-25 16:46 UTC.
Position N 55°42' E 015°26'.

Length 163 m; draft 5.7 m.

Type: Ship. MMSI: 230007000.

Date/timePositionNaut miles runAvg speedWind from/ knotsBaromVisibWave heightAir tempDewpointWater temp
2017-Jul-25 16:30N 55°42' E 015°26'917.1
2017-Jul-25 16:00N 55°46' E 015°39'917.0
2017-Jul-25 15:30N 55°50' E 015°52'917.0
2017-Jul-25 15:00N 55°54' E 016°05'1717.2
2017-Jul-25 14:01N 56°03' E 016°32'917.2
2017-Jul-25 13:31N 56°08' E 016°44'917.0
2017-Jul-25 13:00N 56°13' E 016°56'817.0
2017-Jul-25 12:30N 56°19' E 017°08'917.1
2017-Jul-25 11:59N 56°24' E 017°21'816.9
2017-Jul-25 11:30N 56°29' E 017°33'917.1
2017-Jul-25 11:00N 56°34' E 017°46'817.3
2017-Jul-25 10:30N 56°39' E 017°58'917.0
2017-Jul-25 09:58N 56°45' E 018°11'13517.1
2017-Jul-25 02:05N 58°32' E 020°45'1417.1
2017-Jul-25 01:16N 58°43' E 021°01'417.1
2017-Jul-25 01:01N 58°47' E 021°05'917.2
2017-Jul-25 00:31N 58°54' E 021°14'917.1
2017-Jul-25 00:00N 59°01' E 021°24'816.9
2017-Jul-24 23:30N 59°07' E 021°35'917.2
2017-Jul-24 23:01N 59°12' E 021°48'917.2
2017-Jul-24 22:30N 59°18' E 022°01'816.9
2017-Jul-24 22:00N 59°23' E 022°14'817.0
2017-Jul-24 21:31N 59°28' E 022°27'917.2
2017-Jul-24 21:00N 59°33' E 022°41'1019.6
2017-Jul-24 20:30N 59°39' E 022°57'713.1
2017-Jul-24 20:01N 59°44' E 023°03'611.4
2017-Jul-24 19:30N 59°49' E 022°57'0 0.0
2017-Jul-24 18:59N 59°49' E 022°57'0 0.0
2017-Jul-24 18:29N 59°49' E 022°57'0 0.0
2017-Jul-24 17:59N 59°49' E 022°57'0 0.0
2017-Jul-24 17:29N 59°49' E 022°57'0 0.0
2017-Jul-24 16:59N 59°49' E 022°57'0 0.0
2017-Jul-24 16:29N 59°49' E 022°57'0 0.0
2017-Jul-24 15:59N 59°49' E 022°57'0 0.0
2017-Jul-24 12:59N 59°49' E 022°57'0 0.0
2017-Jul-24 12:29N 59°49' E 022°57'0 0.0
2017-Jul-24 12:00N 59°49' E 022°57'0 0.0
2017-Jul-24 11:27N 59°49' E 022°57'0 0.0
2017-Jul-24 11:00N 59°49' E 022°57'0 0.0
2017-Jul-24 10:28N 59°49' E 022°57'0 0.0
2017-Jul-24 09:58N 59°49' E 022°57'0 0.0
2017-Jul-24 09:28N 59°49' E 022°57'0 0.0
2017-Jul-24 09:00N 59°49' E 022°57'0 0.0
2017-Jul-24 08:29N 59°49' E 022°57'0 0.0
2017-Jul-24 07:48N 59°49' E 022°57'0 0.0
2017-Jul-24 07:27N 59°49' E 022°57'0 0.0
2017-Jul-24 06:58N 59°49' E 022°57'0 0.0
2017-Jul-24 06:30N 59°49' E 022°57'0 0.0
2017-Jul-24 05:59N 59°49' E 022°57'0 0.0
2017-Jul-24 05:30N 59°49' E 022°57'0 0.0
2017-Jul-24 04:58N 59°49' E 022°57'0 0.0
2017-Jul-24 04:29N 59°49' E 022°57'0 0.0
2017-Jul-24 04:00N 59°49' E 022°57'0 0.0
2017-Jul-24 03:28N 59°49' E 022°57'0 0.0
2017-Jul-24 03:00N 59°49' E 022°57'0 0.9
2017-Jul-24 02:30N 59°49' E 022°57'815.6
2017-Jul-24 02:00N 59°42' E 023°05'919.0
2017-Jul-24 01:30N 59°34' E 022°54'816.8
2017-Jul-24 01:00N 59°28' E 022°44'1019.9
2017-Jul-24 00:30N 59°23' E 022°27'917.7
2017-Jul-24 00:01N 59°17' E 022°13'918.8
2017-Jul-23 23:30N 59°11' E 021°59'1020.4
2017-Jul-23 23:00N 59°05' E 021°44'1019.3
2017-Jul-23 22:30N 58°57' E 021°33'918.8
2017-Jul-23 22:00N 58°49' E 021°22'1019.2
2017-Jul-23 21:31N 58°42' E 021°11'918.7
2017-Jul-23 21:00N 58°34' E 021°00'918.7
2017-Jul-23 20:31N 58°27' E 020°49'816.9
2017-Jul-23 20:00N 58°20' E 020°40'918.1
2017-Jul-23 19:30N 58°13' E 020°29'918.0
2017-Jul-23 19:00N 58°06' E 020°19'7518.7
2017-Jul-23 15:00N 57°06' E 018°55'1018.7
2017-Jul-23 14:26N 56°58' E 018°43'1118.8
2017-Jul-23 13:52N 56°49' E 018°31'2518.8
2017-Jul-23 12:31N 56°33' E 017°55'119.1
2017-Jul-23 12:29N 56°33' E 017°54'918.2
2017-Jul-23 12:00N 56°27' E 017°41'918.9
2017-Jul-23 11:30N 56°22' E 017°28'1019.0
2017-Jul-23 11:00N 56°16' E 017°15'918.6
2017-Jul-23 10:30N 56°10' E 017°01'918.6
2017-Jul-23 10:00N 56°04' E 016°48'918.6
2017-Jul-23 09:30N 55°59' E 016°34'918.7
2017-Jul-23 09:00N 55°54' E 016°20'918.6
2017-Jul-23 08:30N 55°50' E 016°06'918.8
2017-Jul-23 08:00N 55°45' E 015°51'918.7
2017-Jul-23 07:30N 55°41' E 015°36'918.8
2017-Jul-23 07:00N 55°36' E 015°21'918.9
2017-Jul-23 06:30N 55°32' E 015°07'918.8
2017-Jul-23 06:00N 55°27' E 014°52'918.8
2017-Jul-23 05:31N 55°23' E 014°38'1019.0
2017-Jul-23 05:00N 55°15' E 014°28'1019.3
2017-Jul-23 04:30N 55°08' E 014°17'1019.2
2017-Jul-23 04:00N 55°01' E 014°04'919.0
2017-Jul-23 03:30N 54°58' E 013°49'918.7
2017-Jul-23 03:00N 54°55' E 013°33'1218.6
2017-Jul-23 02:22N 54°51' E 013°14'718.5
2017-Jul-23 02:01N 54°48' E 013°03'3317.6
2017-Jul-23 00:09N 54°30' E 012°17'317.5
2017-Jul-23 00:00N 54°28' E 012°15'817.1
2017-Jul-22 23:30N 54°21' E 012°06'815.8
2017-Jul-22 23:00N 54°13' E 012°05'4 8.4
2017-Jul-22 22:30N 54°09' E 012°06'0 0.6
2017-Jul-22 21:58N 54°09' E 012°06'0 0.0
2017-Jul-22 21:28N 54°09' E 012°06'0 0.0
2017-Jul-22 20:04N 54°09' E 012°06'0 0.0
2017-Jul-22 16:10N 54°09' E 012°06'0 0.0
2017-Jul-22 15:58N 54°09' E 012°06'0 0.0
2017-Jul-22 15:28N 54°09' E 012°06'0 0.0
2017-Jul-22 14:55N 54°09' E 012°06'3 3.2
2017-Jul-22 13:55N 54°12' E 012°05'3415.0
2017-Jul-22 11:38N 54°43' E 012°30'818.3
2017-Jul-22 11:14N 54°47' E 012°41'2618.2
2017-Jul-22 09:47N 54°56' E 013°23'518.3
2017-Jul-22 09:31N 54°58' E 013°32'918.0
2017-Jul-22 09:01N 55°01' E 013°47'918.1
2017-Jul-22 08:30N 55°04' E 014°02'917.7
2017-Jul-22 08:00N 55°10' E 014°13'918.1
2017-Jul-22 07:31N 55°17' E 014°23'918.2
2017-Jul-22 07:00N 55°24' E 014°34'917.9
2017-Jul-22 06:30N 55°29' E 014°46'918.1
2017-Jul-22 06:00N 55°34' E 014°60'918.1
2017-Jul-22 05:30N 55°38' E 015°13'918.3
2017-Jul-22 05:00N 55°43' E 015°28'918.3
2017-Jul-22 04:30N 55°47' E 015°42'918.3
2017-Jul-22 04:00N 55°52' E 015°56'918.4
2017-Jul-22 03:30N 55°56' E 016°10'918.6
2017-Jul-22 03:00N 56°01' E 016°24'918.6
2017-Jul-22 02:31N 56°06' E 016°39'1018.5
2017-Jul-22 01:59N 56°12' E 016°53'1218.5
2017-Jul-22 01:19N 56°19' E 017°10'618.4
2017-Jul-22 01:01N 56°23' E 017°18'1318.4
2017-Jul-22 00:18N 56°31' E 017°37'1018.6
2017-Jul-21 23:47N 56°36' E 017°51'518.7
2017-Jul-21 23:30N 56°40' E 017°59'15618.3
2017-Jul-21 14:59N 58°42' E 020°58'1118.5
2017-Jul-21 14:25N 58°51' E 021°10'818.4
2017-Jul-21 14:00N 58°57' E 021°19'918.4
2017-Jul-21 13:30N 59°04' E 021°30'918.1
2017-Jul-21 13:00N 59°11' E 021°41'918.2
2017-Jul-21 12:30N 59°16' E 021°55'918.4
2017-Jul-21 12:00N 59°22' E 022°10'918.4
2017-Jul-21 11:30N 59°28' E 022°24'918.6
2017-Jul-21 11:00N 59°33' E 022°39'1020.0
2017-Jul-21 10:30N 59°38' E 022°56'815.9
2017-Jul-21 10:00N 59°46' E 023°01'4 8.3
2017-Jul-21 09:30N 59°49' E 022°57'0 0.0
2017-Jul-21 09:00N 59°49' E 022°57'0 0.0
2017-Jul-21 08:30N 59°49' E 022°57'0 0.0
2017-Jul-21 08:00N 59°49' E 022°57'0 0.0
2017-Jul-21 07:30N 59°49' E 022°57'0 0.0
2017-Jul-21 07:00N 59°49' E 022°57'0 0.0
2017-Jul-21 06:30N 59°49' E 022°57'0 0.0
2017-Jul-21 06:00N 59°49' E 022°57'0 0.0
2017-Jul-21 05:30N 59°49' E 022°57'0 0.0
2017-Jul-21 05:00N 59°49' E 022°57'0 0.0
2017-Jul-21 04:30N 59°49' E 022°57'0 0.0
2017-Jul-21 04:00N 59°49' E 022°57'0 0.0
2017-Jul-21 03:30N 59°49' E 022°57'0 0.0
2017-Jul-21 03:00N 59°49' E 022°57'1 1.1
2017-Jul-21 02:30N 59°49' E 022°57'714.0
2017-Jul-21 02:01N 59°43' E 023°05'815.3
2017-Jul-21 01:31N 59°36' E 022°57'816.2
2017-Jul-21 01:01N 59°30' E 022°48'815.7
2017-Jul-21 00:31N 59°26' E 022°34'816.0
2017-Jul-21 00:01N 59°21' E 022°22'816.1
2017-Jul-20 23:31N 59°16' E 022°09'816.2
2017-Jul-20 23:01N 59°11' E 021°57'816.1
2017-Jul-20 22:31N 59°05' E 021°46'816.2
2017-Jul-20 22:00N 58°59' E 021°37'816.1
2017-Jul-20 21:30N 58°52' E 021°27'917.8
2017-Jul-20 21:00N 58°45' E 021°16'3115.5
2017-Jul-20 19:01N 58°21' E 020°41'8115.9
2017-Jul-20 13:54N 57°16' E 019°10'1916.4
2017-Jul-20 12:45N 57°00' E 018°49'616.0
2017-Jul-20 12:22N 56°56' E 018°41'616.0
2017-Jul-20 11:58N 56°51' E 018°34'1816.2
2017-Jul-20 10:50N 56°39' E 018°08'516.0
2017-Jul-20 10:30N 56°36' E 018°00'815.9
2017-Jul-20 10:00N 56°31' E 017°49'815.8
2017-Jul-20 09:30N 56°27' E 017°37'815.9
2017-Jul-20 09:00N 56°22' E 017°26'816.2
2017-Jul-20 08:30N 56°17' E 017°14'816.1
2017-Jul-20 08:00N 56°12' E 017°03'816.2
2017-Jul-20 07:30N 56°07' E 016°51'816.3
2017-Jul-20 07:00N 56°02' E 016°40'816.2
2017-Jul-20 06:30N 55°58' E 016°27'816.2
2017-Jul-20 06:00N 55°54' E 016°14'815.9
2017-Jul-20 05:30N 55°50' E 016°02'816.0
2017-Jul-20 05:00N 55°46' E 015°50'815.9
2017-Jul-20 04:30N 55°42' E 015°38'815.8
2017-Jul-20 04:00N 55°38' E 015°26'816.0
2017-Jul-20 03:30N 55°34' E 015°13'815.8
2017-Jul-20 03:00N 55°30' E 015°01'815.8
2017-Jul-20 02:30N 55°26' E 014°49'815.9
2017-Jul-20 02:01N 55°22' E 014°38'815.9
2017-Jul-20 01:30N 55°15' E 014°29'815.9
2017-Jul-20 01:00N 55°10' E 014°20'815.9
2017-Jul-20 00:30N 55°04' E 014°11'815.6
2017-Jul-20 00:00N 54°60' E 013°59'815.9
2017-Jul-19 23:30N 54°57' E 013°46'815.9
2017-Jul-19 23:00N 54°54' E 013°33'816.1
2017-Jul-19 22:30N 54°52' E 013°20'816.1
2017-Jul-19 22:01N 54°49' E 013°07'815.8
2017-Jul-19 21:30N 54°46' E 012°54'815.4
2017-Jul-19 21:00N 54°44' E 012°41'815.6
2017-Jul-19 20:30N 54°39' E 012°30'815.8
2017-Jul-19 20:01N 54°34' E 012°20'815.9
2017-Jul-19 19:30N 54°27' E 012°14'815.9
2017-Jul-19 19:00N 54°20' E 012°06'815.1
2017-Jul-19 18:30N 54°13' E 012°05'5 3.0
2017-Jul-19 16:57N 54°08' E 012°06'0 0.0
2017-Jul-19 13:42N 54°08' E 012°06'0 0.0
2017-Jul-19 12:00N 54°08' E 012°06'0 0.0
2017-Jul-19 11:30N 54°08' E 012°06'0 0.0
2017-Jul-19 11:00N 54°08' E 012°06'0 0.0
2017-Jul-19 10:24N 54°08' E 012°06'0 0.0
2017-Jul-19 05:39N 54°08' E 012°06'0 0.0
2017-Jul-19 05:27N 54°08' E 012°06'0 0.0
2017-Jul-19 04:45N 54°08' E 012°06'0 0.0
2017-Jul-19 03:03N 54°08' E 012°06'0 0.0
2017-Jul-19 02:56N 54°08' E 012°06'5 5.2
2017-Jul-19 02:02N 54°13' E 012°04'0 6.7
2017-Jul-19 02:01N 54°13' E 012°04'4 7.3
2017-Jul-19 01:30N 54°16' E 012°01'714.6
2017-Jul-19 01:00N 54°23' E 012°08'714.8
2017-Jul-19 00:31N 54°29' E 012°13'1416.3
2017-Jul-18 23:40N 54°41' E 012°27'1017.2
2017-Jul-18 23:04N 54°47' E 012°41'117.1
2017-Jul-18 23:00N 54°47' E 012°42'2217.1
2017-Jul-18 21:43N 54°55' E 013°18'417.1
2017-Jul-18 21:30N 54°57' E 013°24'817.1
2017-Jul-18 21:00N 54°60' E 013°38'917.1
2017-Jul-18 20:30N 55°02' E 013°52'816.6
2017-Jul-18 20:00N 55°06' E 014°05'817.0
2017-Jul-18 19:30N 55°13' E 014°14'917.4
2017-Jul-18 19:00N 55°19' E 014°24'917.1
2017-Jul-18 18:30N 55°25' E 014°34'917.0
2017-Jul-18 18:00N 55°29' E 014°48'917.0
2017-Jul-18 17:30N 55°34' E 015°01'917.3
2017-Jul-18 17:00N 55°38' E 015°14'917.4
2017-Jul-18 16:30N 55°42' E 015°27'917.3
2017-Jul-18 16:01N 55°47' E 015°41'917.3
2017-Jul-18 15:30N 55°52' E 015°53'917.5
2017-Jul-18 15:01N 55°56' E 016°07'1817.5
2017-Jul-18 14:00N 56°04' E 016°35'917.4
2017-Jul-18 13:31N 56°09' E 016°47'917.3
2017-Jul-18 12:59N 56°14' E 017°01'817.0
2017-Jul-18 12:31N 56°19' E 017°12'17917.1
2017-Jul-18 02:01N 58°36' E 020°49'019.6
2017-Jul-18 02:00N 58°36' E 020°49'817.1
2017-Jul-18 01:30N 58°42' E 020°58'816.9
2017-Jul-18 01:00N 58°49' E 021°08'917.2
2017-Jul-18 00:30N 58°56' E 021°18'917.4
2017-Jul-18 00:00N 59°03' E 021°29'917.4
2017-Jul-17 23:31N 59°10' E 021°39'917.4
2017-Jul-17 23:00N 59°16' E 021°52'917.3
2017-Jul-17 22:30N 59°21' E 022°05'917.2
2017-Jul-17 22:00N 59°26' E 022°18'917.2
2017-Jul-17 21:30N 59°31' E 022°32'917.4
2017-Jul-17 21:00N 59°36' E 022°46'917.4
2017-Jul-17 20:31N 59°41' E 023°00'714.2
2017-Jul-17 20:01N 59°48' E 022°57'1 2.3
2017-Jul-17 19:28N 59°49' E 022°57'0 0.0
2017-Jul-17 18:58N 59°49' E 022°57'0 0.0
2017-Jul-17 18:25N 59°49' E 022°57'0 0.0
2017-Jul-17 17:58N 59°49' E 022°57'0 0.0
2017-Jul-17 17:28N 59°49' E 022°57'0 0.0
2017-Jul-17 16:52N 59°49' E 022°57'0 0.0
2017-Jul-17 16:28N 59°49' E 022°57'0 0.0
2017-Jul-17 15:58N 59°49' E 022°57'0 0.0
2017-Jul-17 15:25N 59°49' E 022°57'0 0.0
2017-Jul-17 14:55N 59°49' E 022°57'0 0.0
2017-Jul-17 14:28N 59°49' E 022°57'0 0.0
2017-Jul-17 13:58N 59°49' E 022°57'0 0.0
2017-Jul-17 13:19N 59°49' E 022°57'0 0.0
2017-Jul-17 12:58N 59°49' E 022°57'0 0.0
2017-Jul-17 12:28N 59°49' E 022°57'0 0.0
2017-Jul-17 11:58N 59°49' E 022°57'0 0.0
2017-Jul-17 11:28N 59°49' E 022°57'0 0.0
2017-Jul-17 10:55N 59°49' E 022°57'0 0.0
2017-Jul-17 10:25N 59°49' E 022°57'0 0.0
2017-Jul-17 09:58N 59°49' E 022°57'0 0.0
2017-Jul-17 09:28N 59°49' E 022°57'0 0.0
2017-Jul-17 08:58N 59°49' E 022°57'0 0.0
2017-Jul-17 08:28N 59°49' E 022°57'0 0.0
2017-Jul-17 07:58N 59°49' E 022°57'0 0.0
2017-Jul-17 07:25N 59°49' E 022°57'0 0.0
2017-Jul-17 06:58N 59°49' E 022°57'0 0.0
2017-Jul-17 06:28N 59°49' E 022°57'0 0.0
2017-Jul-17 05:58N 59°49' E 022°57'0 0.0
2017-Jul-17 05:25N 59°49' E 022°57'0 0.0
2017-Jul-17 04:55N 59°49' E 022°57'0 0.0
2017-Jul-17 04:28N 59°49' E 022°57'0 0.0
2017-Jul-17 03:58N 59°49' E 022°57'0 0.0
2017-Jul-17 03:28N 59°49' E 022°57'0 0.0
2017-Jul-17 02:58N 59°49' E 022°57'0 0.9
2017-Jul-17 02:30N 59°49' E 022°56'815.5
2017-Jul-17 02:01N 59°42' E 023°04'918.1
2017-Jul-17 01:31N 59°36' E 022°53'917.9
2017-Jul-17 01:01N 59°28' E 022°44'918.2
2017-Jul-17 00:30N 59°23' E 022°29'918.4
2017-Jul-17 00:00N 59°17' E 022°15'918.6
2017-Jul-16 23:30N 59°11' E 022°01'918.5
2017-Jul-16 23:00N 59°05' E 021°47'918.6
2017-Jul-16 22:30N 58°58' E 021°36'918.5
2017-Jul-16 22:00N 58°51' E 021°25'1018.4
2017-Jul-16 21:29N 58°43' E 021°14'1019.4
2017-Jul-16 21:00N 58°35' E 021°03'1020.8
2017-Jul-16 20:30N 58°27' E 020°51'1016.9
2017-Jul-16 19:55N 58°19' E 020°40'717.4
2017-Jul-16 19:30N 58°13' E 020°32'2718.2
2017-Jul-16 18:00N 57°52' E 020°01'918.2
2017-Jul-16 17:30N 57°44' E 019°51'1118.4
2017-Jul-16 16:53N 57°35' E 019°38'718.5
2017-Jul-16 16:30N 57°30' E 019°30'1220.2
2017-Jul-16 15:56N 57°20' E 019°17'818.8
2017-Jul-16 15:30N 57°14' E 019°09'918.2
2017-Jul-16 15:00N 57°07' E 018°58'917.8
2017-Jul-16 14:30N 56°60' E 018°48'1020.3
2017-Jul-16 14:00N 56°52' E 018°37'917.7
2017-Jul-16 13:30N 56°46' E 018°25'2417.7
2017-Jul-16 12:09N 56°31' E 017°50'218.3
2017-Jul-16 12:01N 56°30' E 017°47'918.3
2017-Jul-16 11:30N 56°24' E 017°34'918.4
2017-Jul-16 11:01N 56°18' E 017°21'918.5
2017-Jul-16 10:30N 56°12' E 017°08'917.9
2017-Jul-16 10:00N 56°07' E 016°55'917.9
2017-Jul-16 09:30N 56°01' E 016°42'918.3
2017-Jul-16 09:01N 55°57' E 016°28'918.4
2017-Jul-16 08:31N 55°53' E 016°14'918.4
2017-Jul-16 08:01N 55°48' E 015°59'918.3
2017-Jul-16 07:31N 55°44' E 015°45'918.3
2017-Jul-16 07:00N 55°39' E 015°31'918.5
2017-Jul-16 06:31N 55°35' E 015°16'918.3
2017-Jul-16 06:00N 55°31' E 015°02'918.5
2017-Jul-16 05:31N 55°26' E 014°48'918.2
2017-Jul-16 05:01N 55°21' E 014°35'918.6
2017-Jul-16 04:31N 55°13' E 014°25'918.6
2017-Jul-16 04:00N 55°06' E 014°15'918.3
2017-Jul-16 03:30N 54°60' E 014°03'918.4
2017-Jul-16 03:00N 54°57' E 013°48'918.2
2017-Jul-16 02:30N 54°54' E 013°33'918.6
2017-Jul-16 02:01N 54°51' E 013°17'918.9
2017-Jul-16 01:30N 54°48' E 013°02'918.6
2017-Jul-16 01:00N 54°46' E 012°46'2818.0
2017-Jul-15 23:27N 54°26' E 012°12'818.8
2017-Jul-15 23:01N 54°19' E 012°05'714.6
2017-Jul-15 22:30N 54°11' E 012°05'3 5.0
2017-Jul-15 21:58N 54°09' E 012°06'0 0.0
2017-Jul-15 18:11N 54°09' E 012°06'0 0.0
2017-Jul-15 17:59N 54°09' E 012°06'0 0.0
2017-Jul-15 17:29N 54°09' E 012°06'0 0.0
2017-Jul-15 16:59N 54°09' E 012°06'  
Track history (hours):
 
Tides and Currents Weather Stations Pressure Air Temp Water Temp Dewpoint Dewpoint Depression Visibility Wind Speed Wind Dir Waves Ship Positions

Finnhawk

Last reported at 2017-Jul-25 16:30 UTC. Time now 2017-Jul-25 16:46 UTC.
Position N 55°42' E 015°26'.

Length 163 m; draft 5.7 m.

Type: Ship. MMSI: 230007000.

Date/timePositionNaut miles runAvg speedWind from/ knotsBaromVisibWave heightAir tempDewpointWater temp
2017-Jul-25 16:30N 55°42' E 015°26'917.1
2017-Jul-25 16:00N 55°46' E 015°39'917.0
2017-Jul-25 15:30N 55°50' E 015°52'917.0
2017-Jul-25 15:00N 55°54' E 016°05'1717.2
2017-Jul-25 14:01N 56°03' E 016°32'917.2
2017-Jul-25 13:31N 56°08' E 016°44'917.0
2017-Jul-25 13:00N 56°13' E 016°56'817.0
2017-Jul-25 12:30N 56°19' E 017°08'917.1
2017-Jul-25 11:59N 56°24' E 017°21'816.9
2017-Jul-25 11:30N 56°29' E 017°33'917.1
2017-Jul-25 11:00N 56°34' E 017°46'817.3
2017-Jul-25 10:30N 56°39' E 017°58'917.0
2017-Jul-25 09:58N 56°45' E 018°11'13517.1
2017-Jul-25 02:05N 58°32' E 020°45'1417.1
2017-Jul-25 01:16N 58°43' E 021°01'417.1
2017-Jul-25 01:01N 58°47' E 021°05'917.2
2017-Jul-25 00:31N 58°54' E 021°14'917.1
2017-Jul-25 00:00N 59°01' E 021°24'816.9
2017-Jul-24 23:30N 59°07' E 021°35'917.2
2017-Jul-24 23:01N 59°12' E 021°48'917.2
2017-Jul-24 22:30N 59°18' E 022°01'816.9
2017-Jul-24 22:00N 59°23' E 022°14'817.0
2017-Jul-24 21:31N 59°28' E 022°27'917.2
2017-Jul-24 21:00N 59°33' E 022°41'1019.6
2017-Jul-24 20:30N 59°39' E 022°57'713.1
2017-Jul-24 20:01N 59°44' E 023°03'611.4
2017-Jul-24 19:30N 59°49' E 022°57'0 0.0
2017-Jul-24 18:59N 59°49' E 022°57'0 0.0
2017-Jul-24 18:29N 59°49' E 022°57'0 0.0
2017-Jul-24 17:59N 59°49' E 022°57'0 0.0
2017-Jul-24 17:29N 59°49' E 022°57'0 0.0
2017-Jul-24 16:59N 59°49' E 022°57'0 0.0
2017-Jul-24 16:29N 59°49' E 022°57'0 0.0
2017-Jul-24 15:59N 59°49' E 022°57'0 0.0
2017-Jul-24 12:59N 59°49' E 022°57'0 0.0
2017-Jul-24 12:29N 59°49' E 022°57'0 0.0
2017-Jul-24 12:00N 59°49' E 022°57'0 0.0
2017-Jul-24 11:27N 59°49' E 022°57'0 0.0
2017-Jul-24 11:00N 59°49' E 022°57'0 0.0
2017-Jul-24 10:28N 59°49' E 022°57'0 0.0
2017-Jul-24 09:58N 59°49' E 022°57'0 0.0
2017-Jul-24 09:28N 59°49' E 022°57'0 0.0
2017-Jul-24 09:00N 59°49' E 022°57'0 0.0
2017-Jul-24 08:29N 59°49' E 022°57'0 0.0
2017-Jul-24 07:48N 59°49' E 022°57'0 0.0
2017-Jul-24 07:27N 59°49' E 022°57'0 0.0
2017-Jul-24 06:58N 59°49' E 022°57'0 0.0
2017-Jul-24 06:30N 59°49' E 022°57'0 0.0
2017-Jul-24 05:59N 59°49' E 022°57'0 0.0
2017-Jul-24 05:30N 59°49' E 022°57'0 0.0
2017-Jul-24 04:58N 59°49' E 022°57'0 0.0
2017-Jul-24 04:29N 59°49' E 022°57'0 0.0
2017-Jul-24 04:00N 59°49' E 022°57'0 0.0
2017-Jul-24 03:28N 59°49' E 022°57'0 0.0
2017-Jul-24 03:00N 59°49' E 022°57'0 0.9
2017-Jul-24 02:30N 59°49' E 022°57'815.6
2017-Jul-24 02:00N 59°42' E 023°05'919.0
2017-Jul-24 01:30N 59°34' E 022°54'816.8
2017-Jul-24 01:00N 59°28' E 022°44'1019.9
2017-Jul-24 00:30N 59°23' E 022°27'917.7
2017-Jul-24 00:01N 59°17' E 022°13'918.8
2017-Jul-23 23:30N 59°11' E 021°59'1020.4
2017-Jul-23 23:00N 59°05' E 021°44'1019.3
2017-Jul-23 22:30N 58°57' E 021°33'918.8
2017-Jul-23 22:00N 58°49' E 021°22'1019.2
2017-Jul-23 21:31N 58°42' E 021°11'918.7
2017-Jul-23 21:00N 58°34' E 021°00'918.7
2017-Jul-23 20:31N 58°27' E 020°49'816.9
2017-Jul-23 20:00N 58°20' E 020°40'918.1
2017-Jul-23 19:30N 58°13' E 020°29'918.0
2017-Jul-23 19:00N 58°06' E 020°19'7518.7
2017-Jul-23 15:00N 57°06' E 018°55'1018.7
2017-Jul-23 14:26N 56°58' E 018°43'1118.8
2017-Jul-23 13:52N 56°49' E 018°31'2518.8
2017-Jul-23 12:31N 56°33' E 017°55'119.1
2017-Jul-23 12:29N 56°33' E 017°54'918.2
2017-Jul-23 12:00N 56°27' E 017°41'918.9
2017-Jul-23 11:30N 56°22' E 017°28'1019.0
2017-Jul-23 11:00N 56°16' E 017°15'918.6
2017-Jul-23 10:30N 56°10' E 017°01'918.6
2017-Jul-23 10:00N 56°04' E 016°48'918.6
2017-Jul-23 09:30N 55°59' E 016°34'918.7
2017-Jul-23 09:00N 55°54' E 016°20'918.6
2017-Jul-23 08:30N 55°50' E 016°06'918.8
2017-Jul-23 08:00N 55°45' E 015°51'918.7
2017-Jul-23 07:30N 55°41' E 015°36'918.8
2017-Jul-23 07:00N 55°36' E 015°21'918.9
2017-Jul-23 06:30N 55°32' E 015°07'918.8
2017-Jul-23 06:00N 55°27' E 014°52'918.8
2017-Jul-23 05:31N 55°23' E 014°38'1019.0
2017-Jul-23 05:00N 55°15' E 014°28'1019.3
2017-Jul-23 04:30N 55°08' E 014°17'1019.2
2017-Jul-23 04:00N 55°01' E 014°04'919.0
2017-Jul-23 03:30N 54°58' E 013°49'918.7
2017-Jul-23 03:00N 54°55' E 013°33'1218.6
2017-Jul-23 02:22N 54°51' E 013°14'718.5
2017-Jul-23 02:01N 54°48' E 013°03'3317.6
2017-Jul-23 00:09N 54°30' E 012°17'317.5
2017-Jul-23 00:00N 54°28' E 012°15'817.1
2017-Jul-22 23:30N 54°21' E 012°06'815.8
2017-Jul-22 23:00N 54°13' E 012°05'4 8.4
2017-Jul-22 22:30N 54°09' E 012°06'0 0.6
2017-Jul-22 21:58N 54°09' E 012°06'0 0.0
2017-Jul-22 21:28N 54°09' E 012°06'0 0.0
2017-Jul-22 20:04N 54°09' E 012°06'0 0.0
2017-Jul-22 16:10N 54°09' E 012°06'0 0.0
2017-Jul-22 15:58N 54°09' E 012°06'0 0.0
2017-Jul-22 15:28N 54°09' E 012°06'0 0.0
2017-Jul-22 14:55N 54°09' E 012°06'3 3.2
2017-Jul-22 13:55N 54°12' E 012°05'3415.0
2017-Jul-22 11:38N 54°43' E 012°30'818.3
2017-Jul-22 11:14N 54°47' E 012°41'2618.2
2017-Jul-22 09:47N 54°56' E 013°23'518.3
2017-Jul-22 09:31N 54°58' E 013°32'918.0
2017-Jul-22 09:01N 55°01' E 013°47'918.1
2017-Jul-22 08:30N 55°04' E 014°02'917.7
2017-Jul-22 08:00N 55°10' E 014°13'918.1
2017-Jul-22 07:31N 55°17' E 014°23'918.2
2017-Jul-22 07:00N 55°24' E 014°34'917.9
2017-Jul-22 06:30N 55°29' E 014°46'918.1
2017-Jul-22 06:00N 55°34' E 014°60'918.1
2017-Jul-22 05:30N 55°38' E 015°13'918.3
2017-Jul-22 05:00N 55°43' E 015°28'918.3
2017-Jul-22 04:30N 55°47' E 015°42'918.3
2017-Jul-22 04:00N 55°52' E 015°56'918.4
2017-Jul-22 03:30N 55°56' E 016°10'918.6
2017-Jul-22 03:00N 56°01' E 016°24'918.6
2017-Jul-22 02:31N 56°06' E 016°39'1018.5
2017-Jul-22 01:59N 56°12' E 016°53'1218.5
2017-Jul-22 01:19N 56°19' E 017°10'618.4
2017-Jul-22 01:01N 56°23' E 017°18'1318.4
2017-Jul-22 00:18N 56°31' E 017°37'1018.6
2017-Jul-21 23:47N 56°36' E 017°51'518.7
2017-Jul-21 23:30N 56°40' E 017°59'15618.3
2017-Jul-21 14:59N 58°42' E 020°58'1118.5
2017-Jul-21 14:25N 58°51' E 021°10'818.4
2017-Jul-21 14:00N 58°57' E 021°19'918.4
2017-Jul-21 13:30N 59°04' E 021°30'918.1
2017-Jul-21 13:00N 59°11' E 021°41'918.2
2017-Jul-21 12:30N 59°16' E 021°55'918.4
2017-Jul-21 12:00N 59°22' E 022°10'918.4
2017-Jul-21 11:30N 59°28' E 022°24'918.6
2017-Jul-21 11:00N 59°33' E 022°39'1020.0
2017-Jul-21 10:30N 59°38' E 022°56'815.9
2017-Jul-21 10:00N 59°46' E 023°01'4 8.3
2017-Jul-21 09:30N 59°49' E 022°57'0 0.0
2017-Jul-21 09:00N 59°49' E 022°57'0 0.0
2017-Jul-21 08:30N 59°49' E 022°57'0 0.0
2017-Jul-21 08:00N 59°49' E 022°57'0 0.0
2017-Jul-21 07:30N 59°49' E 022°57'0 0.0
2017-Jul-21 07:00N 59°49' E 022°57'0 0.0
2017-Jul-21 06:30N 59°49' E 022°57'0 0.0
2017-Jul-21 06:00N 59°49' E 022°57'0 0.0
2017-Jul-21 05:30N 59°49' E 022°57'0 0.0
2017-Jul-21 05:00N 59°49' E 022°57'0 0.0
2017-Jul-21 04:30N 59°49' E 022°57'0 0.0
2017-Jul-21 04:00N 59°49' E 022°57'0 0.0
2017-Jul-21 03:30N 59°49' E 022°57'0 0.0
2017-Jul-21 03:00N 59°49' E 022°57'1 1.1
2017-Jul-21 02:30N 59°49' E 022°57'714.0
2017-Jul-21 02:01N 59°43' E 023°05'815.3
2017-Jul-21 01:31N 59°36' E 022°57'816.2
2017-Jul-21 01:01N 59°30' E 022°48'815.7
2017-Jul-21 00:31N 59°26' E 022°34'816.0
2017-Jul-21 00:01N 59°21' E 022°22'816.1
2017-Jul-20 23:31N 59°16' E 022°09'816.2
2017-Jul-20 23:01N 59°11' E 021°57'816.1
2017-Jul-20 22:31N 59°05' E 021°46'816.2
2017-Jul-20 22:00N 58°59' E 021°37'816.1
2017-Jul-20 21:30N 58°52' E 021°27'917.8
2017-Jul-20 21:00N 58°45' E 021°16'3115.5
2017-Jul-20 19:01N 58°21' E 020°41'8115.9
2017-Jul-20 13:54N 57°16' E 019°10'1916.4
2017-Jul-20 12:45N 57°00' E 018°49'616.0
2017-Jul-20 12:22N 56°56' E 018°41'616.0
2017-Jul-20 11:58N 56°51' E 018°34'1816.2
2017-Jul-20 10:50N 56°39' E 018°08'516.0
2017-Jul-20 10:30N 56°36' E 018°00'815.9
2017-Jul-20 10:00N 56°31' E 017°49'815.8
2017-Jul-20 09:30N 56°27' E 017°37'815.9
2017-Jul-20 09:00N 56°22' E 017°26'816.2
2017-Jul-20 08:30N 56°17' E 017°14'816.1
2017-Jul-20 08:00N 56°12' E 017°03'816.2
2017-Jul-20 07:30N 56°07' E 016°51'816.3
2017-Jul-20 07:00N 56°02' E 016°40'816.2
2017-Jul-20 06:30N 55°58' E 016°27'816.2
2017-Jul-20 06:00N 55°54' E 016°14'815.9
2017-Jul-20 05:30N 55°50' E 016°02'816.0
2017-Jul-20 05:00N 55°46' E 015°50'815.9
2017-Jul-20 04:30N 55°42' E 015°38'815.8
2017-Jul-20 04:00N 55°38' E 015°26'816.0
2017-Jul-20 03:30N 55°34' E 015°13'815.8
2017-Jul-20 03:00N 55°30' E 015°01'815.8
2017-Jul-20 02:30N 55°26' E 014°49'815.9
2017-Jul-20 02:01N 55°22' E 014°38'815.9
2017-Jul-20 01:30N 55°15' E 014°29'815.9
2017-Jul-20 01:00N 55°10' E 014°20'815.9
2017-Jul-20 00:30N 55°04' E 014°11'815.6
2017-Jul-20 00:00N 54°60' E 013°59'815.9
2017-Jul-19 23:30N 54°57' E 013°46'815.9
2017-Jul-19 23:00N 54°54' E 013°33'816.1
2017-Jul-19 22:30N 54°52' E 013°20'816.1
2017-Jul-19 22:01N 54°49' E 013°07'815.8
2017-Jul-19 21:30N 54°46' E 012°54'815.4
2017-Jul-19 21:00N 54°44' E 012°41'815.6
2017-Jul-19 20:30N 54°39' E 012°30'815.8
2017-Jul-19 20:01N 54°34' E 012°20'815.9
2017-Jul-19 19:30N 54°27' E 012°14'815.9
2017-Jul-19 19:00N 54°20' E 012°06'815.1
2017-Jul-19 18:30N 54°13' E 012°05'5 3.0
2017-Jul-19 16:57N 54°08' E 012°06'0 0.0
2017-Jul-19 13:42N 54°08' E 012°06'0 0.0
2017-Jul-19 12:00N 54°08' E 012°06'0 0.0
2017-Jul-19 11:30N 54°08' E 012°06'0 0.0
2017-Jul-19 11:00N 54°08' E 012°06'0 0.0
2017-Jul-19 10:24N 54°08' E 012°06'0 0.0
2017-Jul-19 05:39N 54°08' E 012°06'0 0.0
2017-Jul-19 05:27N 54°08' E 012°06'0 0.0
2017-Jul-19 04:45N 54°08' E 012°06'0 0.0
2017-Jul-19 03:03N 54°08' E 012°06'0 0.0
2017-Jul-19 02:56N 54°08' E 012°06'5 5.2
2017-Jul-19 02:02N 54°13' E 012°04'0 6.7
2017-Jul-19 02:01N 54°13' E 012°04'4 7.3
2017-Jul-19 01:30N 54°16' E 012°01'714.6
2017-Jul-19 01:00N 54°23' E 012°08'714.8
2017-Jul-19 00:31N 54°29' E 012°13'1416.3
2017-Jul-18 23:40N 54°41' E 012°27'1017.2
2017-Jul-18 23:04N 54°47' E 012°41'117.1
2017-Jul-18 23:00N 54°47' E 012°42'2217.1
2017-Jul-18 21:43N 54°55' E 013°18'417.1
2017-Jul-18 21:30N 54°57' E 013°24'817.1
2017-Jul-18 21:00N 54°60' E 013°38'917.1
2017-Jul-18 20:30N 55°02' E 013°52'816.6
2017-Jul-18 20:00N 55°06' E 014°05'817.0
2017-Jul-18 19:30N 55°13' E 014°14'917.4
2017-Jul-18 19:00N 55°19' E 014°24'917.1
2017-Jul-18 18:30N 55°25' E 014°34'917.0
2017-Jul-18 18:00N 55°29' E 014°48'917.0
2017-Jul-18 17:30N 55°34' E 015°01'917.3
2017-Jul-18 17:00N 55°38' E 015°14'917.4
2017-Jul-18 16:30N 55°42' E 015°27'917.3
2017-Jul-18 16:01N 55°47' E 015°41'917.3
2017-Jul-18 15:30N 55°52' E 015°53'917.5
2017-Jul-18 15:01N 55°56' E 016°07'1817.5
2017-Jul-18 14:00N 56°04' E 016°35'917.4
2017-Jul-18 13:31N 56°09' E 016°47'917.3
2017-Jul-18 12:59N 56°14' E 017°01'817.0
2017-Jul-18 12:31N 56°19' E 017°12'17917.1
2017-Jul-18 02:01N 58°36' E 020°49'019.6
2017-Jul-18 02:00N 58°36' E 020°49'817.1
2017-Jul-18 01:30N 58°42' E 020°58'816.9
2017-Jul-18 01:00N 58°49' E 021°08'917.2
2017-Jul-18 00:30N 58°56' E 021°18'917.4
2017-Jul-18 00:00N 59°03' E 021°29'917.4
2017-Jul-17 23:31N 59°10' E 021°39'917.4
2017-Jul-17 23:00N 59°16' E 021°52'917.3
2017-Jul-17 22:30N 59°21' E 022°05'917.2
2017-Jul-17 22:00N 59°26' E 022°18'917.2
2017-Jul-17 21:30N 59°31' E 022°32'917.4
2017-Jul-17 21:00N 59°36' E 022°46'917.4
2017-Jul-17 20:31N 59°41' E 023°00'714.2
2017-Jul-17 20:01N 59°48' E 022°57'1 2.3
2017-Jul-17 19:28N 59°49' E 022°57'0 0.0
2017-Jul-17 18:58N 59°49' E 022°57'0 0.0
2017-Jul-17 18:25N 59°49' E 022°57'0 0.0
2017-Jul-17 17:58N 59°49' E 022°57'0 0.0
2017-Jul-17 17:28N 59°49' E 022°57'0 0.0
2017-Jul-17 16:52N 59°49' E 022°57'0 0.0
2017-Jul-17 16:28N 59°49' E 022°57'0 0.0
2017-Jul-17 15:58N 59°49' E 022°57'0 0.0
2017-Jul-17 15:25N 59°49' E 022°57'0 0.0
2017-Jul-17 14:55N 59°49' E 022°57'0 0.0
2017-Jul-17 14:28N 59°49' E 022°57'0 0.0
2017-Jul-17 13:58N 59°49' E 022°57'0 0.0
2017-Jul-17 13:19N 59°49' E 022°57'0 0.0
2017-Jul-17 12:58N 59°49' E 022°57'0 0.0
2017-Jul-17 12:28N 59°49' E 022°57'0 0.0
2017-Jul-17 11:58N 59°49' E 022°57'0 0.0
2017-Jul-17 11:28N 59°49' E 022°57'0 0.0
2017-Jul-17 10:55N 59°49' E 022°57'0 0.0
2017-Jul-17 10:25N 59°49' E 022°57'0 0.0
2017-Jul-17 09:58N 59°49' E 022°57'0 0.0
2017-Jul-17 09:28N 59°49' E 022°57'0 0.0
2017-Jul-17 08:58N 59°49' E 022°57'0 0.0
2017-Jul-17 08:28N 59°49' E 022°57'0 0.0
2017-Jul-17 07:58N 59°49' E 022°57'0 0.0
2017-Jul-17 07:25N 59°49' E 022°57'0 0.0
2017-Jul-17 06:58N 59°49' E 022°57'0 0.0
2017-Jul-17 06:28N 59°49' E 022°57'0 0.0
2017-Jul-17 05:58N 59°49' E 022°57'0 0.0
2017-Jul-17 05:25N 59°49' E 022°57'0 0.0
2017-Jul-17 04:55N 59°49' E 022°57'0 0.0
2017-Jul-17 04:28N 59°49' E 022°57'0 0.0
2017-Jul-17 03:58N 59°49' E 022°57'0 0.0
2017-Jul-17 03:28N 59°49' E 022°57'0 0.0
2017-Jul-17 02:58N 59°49' E 022°57'0 0.9
2017-Jul-17 02:30N 59°49' E 022°56'815.5
2017-Jul-17 02:01N 59°42' E 023°04'918.1
2017-Jul-17 01:31N 59°36' E 022°53'917.9
2017-Jul-17 01:01N 59°28' E 022°44'918.2
2017-Jul-17 00:30N 59°23' E 022°29'918.4
2017-Jul-17 00:00N 59°17' E 022°15'918.6
2017-Jul-16 23:30N 59°11' E 022°01'918.5
2017-Jul-16 23:00N 59°05' E 021°47'918.6
2017-Jul-16 22:30N 58°58' E 021°36'918.5
2017-Jul-16 22:00N 58°51' E 021°25'1018.4
2017-Jul-16 21:29N 58°43' E 021°14'1019.4
2017-Jul-16 21:00N 58°35' E 021°03'1020.8
2017-Jul-16 20:30N 58°27' E 020°51'1016.9
2017-Jul-16 19:55N 58°19' E 020°40'717.4
2017-Jul-16 19:30N 58°13' E 020°32'2718.2
2017-Jul-16 18:00N 57°52' E 020°01'918.2
2017-Jul-16 17:30N 57°44' E 019°51'1118.4
2017-Jul-16 16:53N 57°35' E 019°38'718.5
2017-Jul-16 16:30N 57°30' E 019°30'1220.2
2017-Jul-16 15:56N 57°20' E 019°17'818.8
2017-Jul-16 15:30N 57°14' E 019°09'918.2
2017-Jul-16 15:00N 57°07' E 018°58'917.8
2017-Jul-16 14:30N 56°60' E 018°48'1020.3
2017-Jul-16 14:00N 56°52' E 018°37'917.7
2017-Jul-16 13:30N 56°46' E 018°25'2417.7
2017-Jul-16 12:09N 56°31' E 017°50'218.3
2017-Jul-16 12:01N 56°30' E 017°47'918.3
2017-Jul-16 11:30N 56°24' E 017°34'918.4
2017-Jul-16 11:01N 56°18' E 017°21'918.5
2017-Jul-16 10:30N 56°12' E 017°08'917.9
2017-Jul-16 10:00N 56°07' E 016°55'917.9
2017-Jul-16 09:30N 56°01' E 016°42'918.3
2017-Jul-16 09:01N 55°57' E 016°28'918.4
2017-Jul-16 08:31N 55°53' E 016°14'918.4
2017-Jul-16 08:01N 55°48' E 015°59'918.3
2017-Jul-16 07:31N 55°44' E 015°45'918.3
2017-Jul-16 07:00N 55°39' E 015°31'918.5
2017-Jul-16 06:31N 55°35' E 015°16'918.3
2017-Jul-16 06:00N 55°31' E 015°02'918.5
2017-Jul-16 05:31N 55°26' E 014°48'918.2
2017-Jul-16 05:01N 55°21' E 014°35'918.6
2017-Jul-16 04:31N 55°13' E 014°25'918.6
2017-Jul-16 04:00N 55°06' E 014°15'918.3
2017-Jul-16 03:30N 54°60' E 014°03'918.4
2017-Jul-16 03:00N 54°57' E 013°48'918.2
2017-Jul-16 02:30N 54°54' E 013°33'918.6
2017-Jul-16 02:01N 54°51' E 013°17'918.9
2017-Jul-16 01:30N 54°48' E 013°02'918.6
2017-Jul-16 01:00N 54°46' E 012°46'2818.0
2017-Jul-15 23:27N 54°26' E 012°12'818.8
2017-Jul-15 23:01N 54°19' E 012°05'714.6
2017-Jul-15 22:30N 54°11' E 012°05'3 5.0
2017-Jul-15 21:58N 54°09' E 012°06'0 0.0
2017-Jul-15 18:11N 54°09' E 012°06'0 0.0
2017-Jul-15 17:59N 54°09' E 012°06'0 0.0
2017-Jul-15 17:29N 54°09' E 012°06'0 0.0
2017-Jul-15 16:59N 54°09' E 012°06'  

Dump ship's entire track history